createdAt,value
2018-01-25T00:01:42.459Z,28.63
2018-01-25T00:04:10.397Z,28.00
2018-01-25T00:06:38.569Z,29.23
2018-01-25T00:09:06.528Z,28.93
2018-01-25T00:11:34.473Z,30.03
2018-01-25T00:14:02.509Z,27.20
2018-01-25T00:16:31.196Z,30.00
2018-01-25T00:18:59.911Z,28.53
2018-01-25T00:21:27.966Z,27.60
2018-01-25T00:23:55.935Z,28.27
2018-01-25T00:26:24.064Z,30.53
2018-01-25T00:28:52.147Z,29.67
2018-01-25T00:31:20.103Z,32.13
2018-01-25T00:33:48.031Z,31.87
2018-01-25T00:36:16.127Z,31.93
2018-01-25T00:38:44.065Z,32.90
2018-01-25T00:41:11.990Z,30.30
2018-01-25T00:43:40.078Z,30.13
2018-01-25T00:46:08.020Z,31.13
2018-01-25T00:48:35.975Z,32.60
2018-01-25T00:51:04.045Z,30.40
2018-01-25T00:53:31.984Z,31.57
2018-01-25T00:56:00.718Z,33.07
2018-01-25T00:58:28.783Z,29.73
2018-01-25T01:00:56.693Z,32.63
2018-01-25T01:03:24.651Z,31.43
2018-01-25T01:05:52.843Z,34.50
2018-01-25T01:08:21.540Z,32.30
2018-01-25T01:10:50.198Z,29.63
2018-01-25T01:13:18.409Z,33.67
2018-01-25T01:15:47.098Z,33.67
2018-01-25T01:18:15.782Z,33.70
2018-01-25T01:20:43.897Z,33.67
2018-01-25T01:23:11.835Z,31.07
2018-01-25T01:25:39.794Z,32.20
2018-01-25T01:28:08.608Z,33.20
2018-01-25T01:30:36.595Z,30.40
2018-01-25T01:33:04.517Z,34.13
2018-01-25T01:35:33.328Z,32.80
2018-01-25T01:38:01.257Z,34.57
2018-01-25T01:40:29.183Z,32.27
2018-01-25T01:42:57.237Z,33.57
2018-01-25T01:45:25.214Z,31.93
2018-01-25T01:47:53.210Z,35.17
2018-01-25T01:50:21.315Z,37.80
2018-01-25T01:52:49.303Z,33.77
2018-01-25T01:55:21.478Z,30.63
2018-01-25T01:57:49.755Z,32.37
2018-01-25T02:00:18.447Z,32.03
2018-01-25T02:02:47.156Z,30.47
2018-01-25T02:05:15.232Z,33.97
2018-01-25T02:07:43.192Z,31.43
2018-01-25T02:10:11.138Z,32.63
2018-01-25T02:12:39.956Z,31.30
2018-01-25T02:15:08.051Z,29.70
2018-01-25T02:17:36.018Z,33.20
2018-01-25T02:20:04.106Z,33.20
2018-01-25T02:22:32.039Z,32.23
2018-01-25T02:24:59.963Z,33.80
2018-01-25T02:27:28.038Z,31.27
2018-01-25T02:29:57.874Z,31.97
2018-01-25T02:32:26.550Z,30.63
2018-01-25T02:34:55.393Z,34.13
2018-01-25T02:37:23.365Z,34.30
2018-01-25T02:39:51.328Z,32.67
2018-01-25T02:42:19.424Z,34.40
2018-01-25T02:44:47.395Z,32.17
2018-01-25T02:47:19.087Z,35.93
2018-01-25T02:49:47.259Z,34.30
2018-01-25T02:52:15.961Z,34.97
2018-01-25T02:54:44.664Z,33.00
2018-01-25T02:57:12.804Z,35.27
2018-01-25T02:59:40.787Z,36.80
2018-01-25T03:02:09.471Z,35.40
2018-01-25T03:04:38.250Z,33.60
2018-01-25T03:07:06.340Z,36.57
2018-01-25T03:09:35.048Z,32.77
2018-01-25T03:12:03.162Z,34.30
2018-01-25T03:14:31.228Z,33.37
2018-01-25T03:16:59.184Z,33.57
2018-01-25T03:19:27.230Z,34.33
2018-01-25T03:21:55.757Z,33.40
2018-01-25T03:24:23.678Z,32.00
2018-01-25T03:26:52.843Z,33.57
2018-01-25T03:29:20.738Z,32.47
2018-01-25T03:31:49.401Z,35.73
2018-01-25T03:34:17.466Z,36.00
2018-01-25T03:36:45.473Z,33.03
2018-01-25T03:39:14.097Z,34.03
2018-01-25T03:41:42.208Z,32.97
2018-01-25T03:44:10.113Z,31.50
2018-01-25T03:46:38.085Z,33.87
2018-01-25T03:49:06.105Z,33.57
2018-01-25T03:51:34.012Z,34.07
2018-01-25T03:54:02.649Z,31.60
2018-01-25T03:56:30.873Z,33.13
2018-01-25T03:58:59.534Z,31.33
2018-01-25T04:01:27.540Z,33.10
2018-01-25T04:03:56.616Z,31.20
2018-01-25T04:06:25.299Z,31.70
2018-01-25T04:08:53.935Z,32.10
2018-01-25T04:11:22.097Z,30.47
2018-01-25T04:13:50.008Z,33.60
2018-01-25T04:16:18.675Z,33.70
2018-01-25T04:18:46.713Z,31.33
2018-01-25T04:21:14.636Z,31.10
2018-01-25T04:23:42.544Z,30.73
2018-01-25T04:26:11.383Z,30.50
2018-01-25T04:28:39.274Z,29.87
2018-01-25T04:31:07.182Z,30.83
2018-01-25T04:33:35.316Z,27.07
2018-01-25T04:36:03.342Z,30.77
2018-01-25T04:38:31.310Z,29.30
2018-01-25T04:40:59.329Z,30.00
2018-01-25T04:43:27.395Z,29.37
2018-01-25T04:45:55.312Z,30.57
2018-01-25T04:48:23.357Z,29.20
2018-01-25T04:50:52.107Z,31.00
2018-01-25T04:53:20.032Z,28.73
2018-01-25T04:55:48.811Z,27.93
2018-01-25T04:58:17.442Z,26.90
2018-01-25T05:00:45.372Z,27.13
2018-01-25T05:03:14.167Z,27.83
2018-01-25T05:05:42.847Z,30.07
2018-01-25T05:08:11.507Z,25.50
2018-01-25T05:10:39.553Z,31.13
2018-01-25T05:13:07.488Z,29.93
2018-01-25T05:15:35.413Z,26.83
2018-01-25T05:18:03.569Z,29.70
2018-01-25T05:20:31.604Z,27.70
2018-01-25T05:22:59.650Z,29.60
2018-01-25T05:25:27.665Z,26.13
2018-01-25T05:27:55.692Z,28.20
2018-01-25T05:30:24.360Z,25.00
2018-01-25T05:32:52.529Z,27.37
2018-01-25T05:35:20.425Z,28.57
2018-01-25T05:37:49.068Z,27.70
2018-01-25T05:40:17.107Z,28.70
2018-01-25T05:42:45.746Z,28.90
2018-01-25T05:45:13.668Z,29.67
2018-01-25T05:47:41.703Z,26.20
2018-01-25T05:50:09.637Z,28.83
2018-01-25T05:52:37.587Z,27.50
2018-01-25T05:55:05.641Z,25.53
2018-01-25T05:57:34.269Z,28.13
2018-01-25T06:00:02.248Z,30.47
2018-01-25T06:02:30.314Z,27.17
2018-01-25T06:04:58.226Z,27.97
2018-01-25T06:07:26.865Z,25.93
2018-01-25T06:09:54.874Z,26.40
2018-01-25T06:12:22.804Z,24.00
2018-01-25T06:14:50.711Z,28.17
2018-01-25T06:17:18.884Z,25.20
2018-01-25T06:19:46.839Z,27.10
2018-01-25T06:22:14.749Z,27.90
2018-01-25T06:24:43.510Z,26.00
2018-01-25T06:27:11.538Z,24.77
2018-01-25T06:29:39.443Z,24.20
2018-01-25T06:32:07.469Z,26.23
2018-01-25T06:34:35.399Z,25.83
2018-01-25T06:37:03.452Z,28.40
2018-01-25T06:39:31.483Z,25.97
2018-01-25T06:41:59.488Z,24.80
2018-01-25T06:44:27.370Z,25.00
2018-01-25T06:46:55.667Z,27.03
2018-01-25T06:49:24.313Z,24.43
2018-01-25T06:51:52.237Z,23.53
2018-01-25T06:54:21.021Z,24.33
2018-01-25T06:56:49.759Z,25.43
2018-01-25T06:59:17.679Z,23.90
2018-01-25T07:01:46.462Z,25.10
2018-01-25T07:04:15.117Z,25.70
2018-01-25T07:06:43.066Z,25.43
2018-01-25T07:09:11.107Z,24.60
2018-01-25T07:11:39.737Z,26.30
2018-01-25T07:14:07.651Z,24.10
2018-01-25T07:16:36.459Z,27.90
2018-01-25T07:19:04.353Z,26.27
2018-01-25T07:21:32.250Z,24.70
2018-01-25T07:24:00.426Z,23.90
2018-01-25T07:26:28.363Z,24.37
2018-01-25T07:28:56.291Z,24.40
2018-01-25T07:31:25.059Z,22.77
2018-01-25T07:33:52.953Z,23.50
2018-01-25T07:36:21.662Z,22.73
2018-01-25T07:38:49.695Z,24.13
2018-01-25T07:41:17.607Z,25.43
2018-01-25T07:43:45.513Z,24.73
2018-01-25T07:46:13.592Z,23.70
2018-01-25T07:48:41.606Z,24.50
2018-01-25T07:51:09.510Z,23.03
2018-01-25T07:53:37.566Z,24.63
2018-01-25T07:56:05.482Z,24.00
2018-01-25T07:58:33.452Z,23.77
2018-01-25T08:01:01.482Z,24.93
2018-01-25T08:03:29.375Z,24.30
2018-01-25T08:05:57.521Z,23.93
2018-01-25T08:08:25.594Z,23.37
2018-01-25T08:10:53.502Z,23.33
2018-01-25T08:13:27.054Z,23.03
2018-01-25T08:16:00.592Z,24.73
2018-01-25T08:18:28.567Z,24.90
2018-01-25T08:20:56.555Z,25.77
2018-01-25T08:23:24.487Z,22.10
2018-01-25T08:25:52.772Z,25.17
2018-01-25T08:28:20.693Z,25.30
2018-01-25T08:30:49.360Z,24.87
2018-01-25T08:33:17.435Z,26.03
2018-01-25T08:35:45.496Z,26.80
2018-01-25T08:38:13.389Z,28.87
2018-01-25T08:40:42.281Z,23.57
2018-01-25T08:43:11.022Z,24.80
2018-01-25T08:45:39.529Z,25.50
2018-01-25T08:48:07.968Z,24.73
2018-01-25T08:50:35.900Z,24.83
2018-01-25T08:53:04.552Z,24.40
2018-01-25T08:55:32.595Z,24.67
2018-01-25T08:58:00.724Z,26.10
2018-01-25T09:00:28.663Z,26.70
2018-01-25T09:02:56.752Z,24.60
2018-01-25T09:05:24.834Z,23.70
2018-01-25T09:07:52.739Z,24.50
2018-01-25T09:10:21.004Z,24.93
2018-01-25T09:12:48.952Z,26.10
2018-01-25T09:15:16.935Z,26.00
2018-01-25T09:17:45.681Z,24.90
2018-01-25T09:20:13.606Z,24.63
2018-01-25T09:22:42.267Z,24.80
2018-01-25T09:25:11.182Z,26.03
2018-01-25T09:27:39.941Z,25.53
2018-01-25T09:30:07.866Z,22.60
2018-01-25T09:32:35.923Z,22.13
2018-01-25T09:35:03.880Z,25.83
2018-01-25T09:37:31.815Z,24.17
2018-01-25T09:39:59.858Z,23.23
2018-01-25T09:42:27.761Z,24.83
2018-01-25T09:44:55.670Z,24.97
2018-01-25T09:47:24.467Z,22.10
2018-01-25T09:49:52.354Z,27.30
2018-01-25T09:52:20.259Z,24.67
2018-01-25T09:54:48.369Z,25.00
2018-01-25T09:57:17.088Z,24.10
2018-01-25T09:59:45.051Z,25.53
2018-01-25T10:02:13.085Z,25.90
2018-01-25T10:04:41.789Z,24.90
2018-01-25T10:07:09.765Z,26.57
2018-01-25T10:09:37.803Z,25.73
2018-01-25T10:12:05.749Z,25.93
2018-01-25T10:14:33.667Z,24.60
2018-01-25T10:17:02.515Z,25.63
2018-01-25T10:19:30.425Z,24.20
2018-01-25T10:21:59.095Z,24.40
2018-01-25T10:24:27.881Z,22.17
2018-01-25T10:26:55.914Z,23.10
2018-01-25T10:29:24.054Z,24.50
2018-01-25T10:31:52.157Z,24.33
2018-01-25T10:34:20.062Z,24.00
2018-01-25T10:36:49.978Z,23.90
2018-01-25T10:39:18.129Z,23.63
2018-01-25T10:41:47.453Z,24.30
2018-01-25T10:44:15.376Z,24.57
2018-01-25T10:46:43.542Z,24.63
2018-01-25T10:49:13.130Z,21.40
2018-01-25T10:51:41.794Z,24.50
2018-01-25T10:54:09.836Z,25.57
2018-01-25T10:56:37.816Z,21.77
2018-01-25T10:59:05.752Z,24.90
2018-01-25T11:01:39.456Z,22.83
2018-01-25T11:04:07.410Z,23.57
2018-01-25T11:06:36.126Z,25.23
2018-01-25T11:09:04.411Z,23.30
2018-01-25T11:11:32.314Z,26.43
2018-01-25T11:14:00.235Z,23.70
2018-01-25T11:16:28.328Z,25.60
2018-01-25T11:18:56.260Z,24.17
2018-01-25T11:21:25.067Z,24.03
2018-01-25T11:23:53.107Z,23.50
2018-01-25T11:26:21.844Z,25.87
2018-01-25T11:28:49.765Z,21.07
2018-01-25T11:31:18.845Z,22.23
2018-01-25T11:33:46.738Z,23.97
2018-01-25T11:36:15.451Z,25.00
2018-01-25T11:38:43.484Z,20.43
2018-01-25T11:41:12.137Z,19.47
2018-01-25T11:43:40.026Z,22.30
2018-01-25T11:46:08.256Z,20.20
2018-01-25T11:48:36.151Z,17.53
2018-01-25T11:51:04.091Z,19.20
2018-01-25T11:53:32.110Z,23.47
2018-01-25T11:56:00.143Z,21.20
2018-01-25T11:58:28.104Z,19.97
2018-01-25T12:00:56.109Z,21.77
2018-01-25T12:03:24.040Z,20.50
2018-01-25T12:05:52.025Z,20.10
2018-01-25T12:08:20.155Z,23.27
2018-01-25T12:10:49.799Z,22.47
2018-01-25T12:13:17.780Z,22.40
2018-01-25T12:15:45.866Z,22.67
2018-01-25T12:18:13.833Z,23.10
2018-01-25T12:20:41.777Z,24.33
2018-01-25T12:23:10.634Z,23.77
2018-01-25T12:25:38.654Z,24.67
2018-01-25T12:28:06.580Z,24.50
2018-01-25T12:30:35.392Z,24.10
2018-01-25T12:33:03.473Z,22.83
2018-01-25T12:35:32.206Z,22.60
2018-01-25T12:38:00.384Z,24.17
2018-01-25T12:40:28.291Z,21.63
2018-01-25T12:42:56.957Z,21.80
2018-01-25T12:45:25.005Z,24.60
2018-01-25T12:47:52.934Z,21.87
2018-01-25T12:50:20.880Z,25.00
2018-01-25T12:52:49.646Z,23.53
2018-01-25T12:55:17.587Z,20.63
2018-01-25T12:57:45.510Z,21.60
2018-01-25T13:00:13.635Z,23.77
2018-01-25T13:02:42.405Z,21.67
2018-01-25T13:05:11.250Z,24.17
2018-01-25T13:07:39.397Z,21.97
2018-01-25T13:10:08.215Z,23.27
2018-01-25T13:12:36.140Z,22.30
2018-01-25T13:15:04.210Z,23.13
2018-01-25T13:17:35.079Z,22.90
2018-01-25T13:20:03.119Z,22.20
2018-01-25T13:22:31.174Z,22.37
2018-01-25T13:24:59.280Z,22.97
2018-01-25T13:27:27.251Z,23.87
2018-01-25T13:29:55.174Z,20.00
2018-01-25T13:32:24.341Z,23.10
2018-01-25T13:34:52.427Z,21.63
2018-01-25T13:37:20.570Z,21.87
2018-01-25T13:39:49.381Z,22.93
2018-01-25T13:42:17.331Z,24.63
2018-01-25T13:44:45.442Z,22.30
2018-01-25T13:47:14.183Z,26.37
2018-01-25T13:49:42.094Z,21.57
2018-01-25T13:52:16.706Z,22.83
2018-01-25T13:54:45.788Z,23.47
2018-01-25T13:57:13.743Z,25.37
2018-01-25T13:59:41.790Z,21.37
2018-01-25T14:02:09.713Z,22.80
2018-01-25T14:04:38.501Z,23.70
2018-01-25T14:07:06.607Z,24.20
2018-01-25T14:09:35.378Z,23.90
2018-01-25T14:12:03.299Z,23.27
2018-01-25T14:17:25.730Z,22.77
2018-01-25T14:19:54.412Z,24.20
2018-01-25T14:22:23.167Z,22.50
2018-01-25T14:24:51.140Z,24.73
2018-01-25T14:27:19.207Z,23.40
2018-01-25T14:29:47.148Z,24.00
2018-01-25T14:32:15.120Z,22.90
2018-01-25T14:34:43.049Z,23.80
2018-01-25T14:37:11.803Z,23.00
2018-01-25T14:39:39.781Z,24.47
2018-01-25T14:42:07.837Z,23.83
2018-01-25T14:44:35.757Z,23.30
2018-01-25T14:47:04.524Z,22.27
2018-01-25T14:49:32.588Z,24.73
2018-01-25T14:52:00.520Z,22.60
2018-01-25T14:54:28.732Z,24.00
2018-01-25T14:56:56.962Z,26.00
2018-01-25T14:59:24.930Z,23.27
2018-01-25T15:01:52.960Z,22.33
2018-01-25T15:04:21.009Z,24.97
2018-01-25T15:06:48.983Z,27.00
2018-01-25T15:09:17.022Z,23.90
2018-01-25T15:11:45.091Z,25.20
2018-01-25T15:14:13.028Z,27.53
2018-01-25T15:16:41.795Z,23.83
2018-01-25T15:19:09.861Z,25.87
2018-01-25T15:21:37.826Z,23.43
2018-01-25T15:24:05.767Z,26.43
2018-01-25T15:26:34.900Z,25.80
2018-01-25T15:29:02.953Z,27.53
2018-01-25T15:31:30.892Z,27.40
2018-01-25T15:33:59.678Z,25.50
2018-01-25T15:36:28.401Z,28.97
2018-01-25T15:38:56.379Z,25.50
2018-01-25T15:41:24.459Z,27.80
2018-01-25T15:43:52.589Z,26.40
2018-01-25T15:46:20.562Z,28.00
2018-01-25T15:48:48.648Z,26.53
2018-01-25T15:51:16.648Z,27.37
2018-01-25T15:53:44.587Z,26.67
2018-01-25T15:56:12.785Z,25.33
2018-01-25T15:58:40.724Z,23.50
2018-01-25T16:01:08.669Z,26.37
2018-01-25T16:03:37.451Z,25.27
2018-01-25T16:06:05.378Z,25.97
2018-01-25T16:08:34.112Z,25.07
2018-01-25T16:11:03.910Z,27.70
2018-01-25T16:13:31.848Z,26.87
2018-01-25T16:16:00.715Z,25.00
2018-01-25T16:18:29.793Z,26.47
2018-01-25T16:20:58.453Z,25.40
2018-01-25T16:23:26.373Z,27.00
2018-01-25T16:25:54.426Z,27.40
2018-01-25T16:28:29.880Z,26.60
2018-01-25T16:30:57.822Z,25.77
2018-01-25T16:33:25.770Z,26.57
2018-01-25T16:35:53.804Z,29.60
2018-01-25T16:38:21.997Z,29.17
2018-01-25T16:40:49.910Z,27.33
2018-01-25T16:43:18.715Z,26.50
2018-01-25T16:45:47.621Z,26.33
2018-01-25T16:48:16.330Z,24.07
2018-01-25T16:50:45.227Z,27.60
2018-01-25T16:53:14.117Z,25.37
2018-01-25T16:55:42.072Z,26.90
2018-01-25T16:58:10.125Z,29.27
2018-01-25T17:00:38.949Z,30.60
2018-01-25T17:03:06.885Z,29.33
2018-01-25T17:05:35.641Z,28.10
2018-01-25T17:08:03.780Z,26.10
2018-01-25T17:10:31.754Z,28.23
2018-01-25T17:12:59.748Z,26.27
2018-01-25T17:15:27.845Z,27.07
2018-01-25T17:17:56.568Z,27.87
2018-01-25T17:20:24.518Z,27.70
2018-01-25T17:22:53.334Z,27.27
2018-01-25T17:25:21.342Z,29.00
2018-01-25T17:27:49.425Z,25.70
2018-01-25T17:30:17.514Z,28.83
2018-01-25T17:32:46.201Z,27.57
2018-01-25T17:35:14.908Z,27.37
2018-01-25T17:37:43.799Z,27.93
2018-01-25T17:40:12.512Z,28.60
2018-01-25T17:42:40.478Z,28.90
2018-01-25T17:45:08.557Z,28.87
2018-01-25T17:47:36.525Z,38.90
2018-01-25T17:50:04.525Z,40.90
2018-01-25T17:52:32.596Z,35.27
2018-01-25T17:55:00.554Z,36.90
2018-01-25T17:57:28.507Z,34.77
2018-01-25T17:59:56.762Z,36.57
2018-01-25T18:02:25.475Z,36.07
2018-01-25T18:04:53.433Z,34.57
2018-01-25T18:07:21.599Z,37.90
2018-01-25T18:09:49.554Z,36.47
2018-01-25T18:12:18.233Z,37.27
2018-01-25T18:14:47.054Z,34.37
2018-01-25T18:17:15.047Z,38.70
2018-01-25T18:19:42.990Z,39.37
2018-01-25T18:22:11.061Z,37.60
2018-01-25T18:24:39.018Z,35.17
2018-01-25T18:27:07.757Z,34.03
2018-01-25T18:29:35.860Z,36.90
2018-01-25T18:32:03.816Z,35.47
2018-01-25T18:34:31.919Z,38.30
2018-01-25T18:37:00.871Z,34.17
2018-01-25T18:39:28.825Z,37.10
2018-01-25T18:41:56.765Z,34.97
2018-01-25T18:44:25.587Z,34.40
2018-01-25T18:46:53.732Z,35.90
2018-01-25T18:49:21.677Z,35.43
2018-01-25T18:51:49.742Z,36.27
2018-01-25T18:54:17.694Z,37.33
2018-01-25T18:56:45.689Z,39.07
2018-01-25T18:59:13.795Z,36.57
2018-01-25T19:01:41.919Z,36.13
2018-01-25T19:04:09.873Z,36.60
2018-01-25T19:06:37.999Z,34.40
2018-01-25T19:09:06.717Z,34.43
2018-01-25T19:11:34.676Z,36.20
2018-01-25T19:14:02.796Z,36.03
2018-01-25T19:16:30.860Z,33.67
2018-01-25T19:18:58.825Z,38.63
2018-01-25T19:21:26.901Z,38.03
2018-01-25T19:23:54.833Z,36.87
2018-01-25T19:26:22.788Z,36.60
2018-01-25T19:28:51.624Z,37.03
2018-01-25T19:31:19.553Z,38.03
2018-01-25T19:33:48.237Z,39.27
2018-01-25T19:36:17.132Z,35.97
2018-01-25T19:38:45.832Z,38.80
2018-01-25T19:41:13.781Z,37.90
2018-01-25T19:43:42.593Z,37.97
2018-01-25T19:46:10.543Z,41.83
2018-01-25T19:48:39.257Z,38.27
2018-01-25T19:51:07.375Z,37.43
2018-01-25T19:53:35.330Z,37.60
2018-01-25T19:56:03.302Z,35.90
2018-01-25T19:58:31.361Z,36.20
2018-01-25T20:00:59.300Z,37.90
2018-01-25T20:03:27.400Z,36.90
2018-01-25T20:05:55.530Z,38.07
2018-01-25T20:08:24.219Z,36.77
2018-01-25T20:10:52.907Z,38.27
2018-01-25T20:13:21.755Z,38.93
2018-01-25T20:15:49.677Z,39.00
2018-01-25T20:18:18.380Z,37.90
2018-01-25T20:20:46.441Z,36.20
2018-01-25T20:23:14.381Z,36.83
2018-01-25T20:25:42.360Z,36.27
2018-01-25T20:28:11.174Z,38.90
2018-01-25T20:30:39.123Z,37.00
2018-01-25T20:33:07.789Z,38.27
2018-01-25T20:35:35.855Z,37.50
2018-01-25T20:38:03.788Z,38.67
2018-01-25T20:40:31.746Z,36.53
2018-01-25T20:42:59.821Z,38.60
2018-01-25T20:45:27.791Z,36.00
2018-01-25T20:47:55.731Z,37.23
2018-01-25T20:50:24.584Z,38.50
2018-01-25T20:52:52.563Z,41.10
2018-01-25T20:55:20.526Z,40.60
2018-01-25T20:57:48.655Z,39.93
2018-01-25T21:00:17.373Z,37.00
2018-01-25T21:02:45.335Z,39.40
2018-01-25T21:05:13.548Z,38.10
2018-01-25T21:07:41.495Z,38.17
2018-01-25T21:10:09.441Z,38.90
2018-01-25T21:12:37.527Z,39.50
2018-01-25T21:15:05.497Z,37.93
2018-01-25T21:17:33.445Z,38.73
2018-01-25T21:20:01.554Z,38.20
2018-01-25T21:22:29.485Z,40.63
2018-01-25T21:24:58.175Z,39.20
2018-01-25T21:27:26.373Z,38.70
2018-01-25T21:29:54.312Z,38.77
2018-01-25T21:32:22.977Z,40.50
2018-01-25T21:34:51.059Z,41.67
2018-01-25T21:37:19.825Z,39.80
2018-01-25T21:39:47.769Z,43.90
2018-01-25T21:42:15.841Z,38.33
2018-01-25T21:44:43.849Z,40.00
2018-01-25T21:47:11.918Z,41.70
2018-01-25T21:49:39.996Z,42.10
2018-01-25T21:52:07.963Z,40.23
2018-01-25T21:54:35.931Z,41.43
2018-01-25T21:57:04.131Z,41.87
2018-01-25T21:59:32.111Z,42.53
2018-01-25T22:02:00.803Z,42.37
2018-01-25T22:04:29.616Z,41.10
2018-01-25T22:06:57.828Z,43.30
2018-01-25T22:09:25.768Z,44.40
2018-01-25T22:11:53.847Z,40.70
2018-01-25T22:14:21.817Z,43.03
2018-01-25T22:16:49.811Z,41.93
2018-01-25T22:19:17.908Z,42.50
2018-01-25T22:21:46.611Z,43.87
2018-01-25T22:24:15.311Z,44.73
2018-01-25T22:26:43.488Z,45.53
2018-01-25T22:29:11.445Z,43.30
2018-01-25T22:31:40.113Z,46.07
2018-01-25T22:34:09.019Z,42.60
2018-01-25T22:36:37.796Z,43.40
2018-01-25T22:39:06.494Z,41.87
2018-01-25T22:41:35.323Z,43.93
2018-01-25T22:44:03.307Z,44.10
2018-01-25T22:46:31.316Z,41.80
2018-01-25T22:49:00.125Z,42.63
2018-01-25T22:51:28.836Z,41.13
2018-01-25T22:53:56.808Z,43.17
2018-01-25T22:56:24.940Z,45.57
2018-01-25T22:58:53.656Z,43.17
2018-01-25T23:01:21.737Z,47.40
2018-01-25T23:03:49.819Z,44.70
2018-01-25T23:06:17.799Z,44.33
2018-01-25T23:08:45.909Z,47.03
2018-01-25T23:11:13.977Z,46.60
2018-01-25T23:13:41.933Z,44.90
2018-01-25T23:16:09.900Z,44.30
2018-01-25T23:18:37.971Z,45.20
2018-01-25T23:21:05.917Z,45.63
2018-01-25T23:23:33.883Z,46.53
2018-01-25T23:26:01.948Z,48.50
2018-01-25T23:28:29.881Z,47.30
2018-01-25T23:30:57.836Z,44.00
2018-01-25T23:33:25.897Z,46.03
2018-01-25T23:35:53.821Z,43.63
2018-01-25T23:38:22.062Z,45.43
2018-01-25T23:40:50.156Z,45.93
2018-01-25T23:43:18.985Z,43.50
2018-01-25T23:45:46.925Z,45.20
2018-01-25T23:48:15.796Z,45.10
2018-01-25T23:50:43.754Z,44.60
2018-01-25T23:53:11.681Z,45.07
2018-01-25T23:55:39.749Z,45.27
2018-01-25T23:58:07.725Z,46.47
